Terminal Aerodrome Forecast
Issued by NWS

Home | Current Version | Previous Version | Text Only | Print | Product List | Glossary On
Versions: 1 2 3 4 5 6 7 8 9 10 11 12 13 14 15 16 17 18 19 20 21 22 23 24 25 26 27 28
136
FTUS42 KCAE 212105 AAA
TAFDNL
TAF AMD
KDNL 212105Z 2121/2218 14008KT P6SM VCSH BKN040
     FM220000 VRB03KT P6SM SCT050
      TEMPO 2210/2212 5SM BR
     FM221400 VRB03KT P6SM BKN050=

USA.gov is the U.S. government's official web portal to all federal, state and local government web resources and services.